Capitol Logistics 7372

Operating for MZN



KIAH
George Bush Intcntl/Houston Airport
Houston, Texas
KBWI
Baltimore/Washington International Thurgood Marshall Airport
Baltimore, Maryland

Activity Log

Date Flight Route Aircraft Duration
No Flights Yet

Route Details

Aircraft Information
Primary: Boeing 737-800BCF
Backup: Boeing 757-200SF
Route Data
Distance: 1073nm
Duration: 2h 27m
Recm'd Route: GUMBY3 GUSTI Q22 CATLN Q56 KELLN Q58 PEETT THHMP RAVNN6
Origin Wx: KIAH 180253Z 36012KT 10SM FEW026 FEW075 BKN110 BKN170 14/09 A3007 RMK AO2 SLP184 T01390094 53031
Dest. Wx: KBWI 180254Z 00000KT 10SM FEW110 SCT200 10/03 A2986 RMK AO2 SLP111 T01000033 51012
Notes: